sensor_id;sensor_type;location;lat;lon;timestamp;P1;durP1;ratioP1;P2;durP2;ratioP2
7080;SDS011;3582;51.506;11.948;2022-08-20T00:00:35;17.17;;;15.43;;
7080;SDS011;3582;51.506;11.948;2022-08-20T00:03:03;19.90;;;18.10;;
7080;SDS011;3582;51.506;11.948;2022-08-20T00:05:31;19.60;;;17.77;;
7080;SDS011;3582;51.506;11.948;2022-08-20T00:07:58;20.90;;;19.00;;
7080;SDS011;3582;51.506;11.948;2022-08-20T00:10:25;18.50;;;16.70;;
7080;SDS011;3582;51.506;11.948;2022-08-20T00:12:51;19.83;;;17.40;;
7080;SDS011;3582;51.506;11.948;2022-08-20T00:15:18;19.70;;;17.83;;
7080;SDS011;3582;51.506;11.948;2022-08-20T00:17:49;19.13;;;17.33;;
7080;SDS011;3582;51.506;11.948;2022-08-20T00:20:15;19.97;;;18.00;;
7080;SDS011;3582;51.506;11.948;2022-08-20T00:22:42;19.53;;;17.70;;
7080;SDS011;3582;51.506;11.948;2022-08-20T00:25:08;19.30;;;17.50;;
7080;SDS011;3582;51.506;11.948;2022-08-20T00:27:34;19.60;;;17.57;;
7080;SDS011;3582;51.506;11.948;2022-08-20T00:30:01;18.63;;;16.60;;
7080;SDS011;3582;51.506;11.948;2022-08-20T00:32:27;17.87;;;15.93;;
7080;SDS011;3582;51.506;11.948;2022-08-20T00:34:53;17.27;;;15.77;;
7080;SDS011;3582;51.506;11.948;2022-08-20T00:37:19;20.07;;;18.07;;
7080;SDS011;3582;51.506;11.948;2022-08-20T00:39:45;20.20;;;18.10;;
7080;SDS011;3582;51.506;11.948;2022-08-20T00:42:11;19.17;;;17.40;;
7080;SDS011;3582;51.506;11.948;2022-08-20T00:44:42;21.27;;;19.03;;
7080;SDS011;3582;51.506;11.948;2022-08-20T00:47:10;19.63;;;17.63;;
7080;SDS011;3582;51.506;11.948;2022-08-20T00:49:36;18.63;;;16.53;;
7080;SDS011;3582;51.506;11.948;2022-08-20T00:52:05;21.03;;;18.93;;
7080;SDS011;3582;51.506;11.948;2022-08-20T00:54:39;23.93;;;20.03;;
7080;SDS011;3582;51.506;11.948;2022-08-20T00:57:08;21.40;;;19.40;;
7080;SDS011;3582;51.506;11.948;2022-08-20T00:59:35;22.83;;;20.50;;
7080;SDS011;3582;51.506;11.948;2022-08-20T01:02:03;23.97;;;21.20;;
7080;SDS011;3582;51.506;11.948;2022-08-20T01:04:30;24.30;;;22.00;;
7080;SDS011;3582;51.506;11.948;2022-08-20T01:06:57;25.63;;;20.47;;
7080;SDS011;3582;51.506;11.948;2022-08-20T01:09:23;24.30;;;20.10;;
7080;SDS011;3582;51.506;11.948;2022-08-20T01:11:49;22.83;;;19.60;;
7080;SDS011;3582;51.506;11.948;2022-08-20T01:14:15;22.87;;;20.43;;
7080;SDS011;3582;51.506;11.948;2022-08-20T01:17:02;21.63;;;19.43;;
7080;SDS011;3582;51.506;11.948;2022-08-20T01:19:29;24.47;;;21.93;;
7080;SDS011;3582;51.506;11.948;2022-08-20T01:21:56;23.17;;;20.93;;
7080;SDS011;3582;51.506;11.948;2022-08-20T01:24:27;22.47;;;20.20;;
7080;SDS011;3582;51.506;11.948;2022-08-20T01:26:55;21.63;;;19.43;;
7080;SDS011;3582;51.506;11.948;2022-08-20T01:29:22;22.47;;;20.27;;
7080;SDS011;3582;51.506;11.948;2022-08-20T01:31:48;22.23;;;19.87;;
7080;SDS011;3582;51.506;11.948;2022-08-20T01:34:15;21.17;;;19.07;;
7080;SDS011;3582;51.506;11.948;2022-08-20T01:36:43;23.13;;;20.80;;
7080;SDS011;3582;51.506;11.948;2022-08-20T01:39:11;22.07;;;19.73;;
7080;SDS011;3582;51.506;11.948;2022-08-20T01:44:22;22.40;;;20.20;;
7080;SDS011;3582;51.506;11.948;2022-08-20T01:46:49;23.80;;;21.40;;
7080;SDS011;3582;51.506;11.948;2022-08-20T01:49:29;25.80;;;20.77;;
7080;SDS011;3582;51.506;11.948;2022-08-20T01:51:56;23.93;;;21.53;;
7080;SDS011;3582;51.506;11.948;2022-08-20T01:54:23;22.00;;;19.80;;
7080;SDS011;3582;51.506;11.948;2022-08-20T01:56:51;23.40;;;19.43;;
7080;SDS011;3582;51.506;11.948;2022-08-20T01:59:17;21.10;;;18.80;;
7080;SDS011;3582;51.506;11.948;2022-08-20T02:01:43;22.20;;;19.80;;
7080;SDS011;3582;51.506;11.948;2022-08-20T02:04:10;22.40;;;19.10;;
7080;SDS011;3582;51.506;11.948;2022-08-20T02:06:41;22.53;;;20.23;;
7080;SDS011;3582;51.506;11.948;2022-08-20T02:09:08;21.97;;;19.87;;
7080;SDS011;3582;51.506;11.948;2022-08-20T02:11:35;22.27;;;20.00;;
7080;SDS011;3582;51.506;11.948;2022-08-20T02:14:02;20.83;;;18.77;;
7080;SDS011;3582;51.506;11.948;2022-08-20T02:16:31;19.73;;;17.73;;
7080;SDS011;3582;51.506;11.948;2022-08-20T02:18:59;21.13;;;19.07;;
7080;SDS011;3582;51.506;11.948;2022-08-20T02:21:27;20.80;;;18.77;;
7080;SDS011;3582;51.506;11.948;2022-08-20T02:23:55;21.90;;;19.67;;
7080;SDS011;3582;51.506;11.948;2022-08-20T02:26:21;28.13;;;21.40;;
7080;SDS011;3582;51.506;11.948;2022-08-20T02:28:48;24.00;;;20.77;;
7080;SDS011;3582;51.506;11.948;2022-08-20T02:31:18;23.53;;;21.10;;
7080;SDS011;3582;51.506;11.948;2022-08-20T02:33:45;21.60;;;19.30;;
7080;SDS011;3582;51.506;11.948;2022-08-20T02:36:11;21.40;;;19.13;;
7080;SDS011;3582;51.506;11.948;2022-08-20T02:38:38;23.10;;;20.80;;
7080;SDS011;3582;51.506;11.948;2022-08-20T02:41:04;24.07;;;21.57;;
7080;SDS011;3582;51.506;11.948;2022-08-20T02:43:30;22.97;;;20.77;;
7080;SDS011;3582;51.506;11.948;2022-08-20T02:45:57;24.07;;;21.60;;
7080;SDS011;3582;51.506;11.948;2022-08-20T02:48:23;22.87;;;20.57;;
7080;SDS011;3582;51.506;11.948;2022-08-20T02:50:55;25.10;;;22.70;;
7080;SDS011;3582;51.506;11.948;2022-08-20T02:53:22;26.47;;;21.40;;
7080;SDS011;3582;51.506;11.948;2022-08-20T02:55:48;25.70;;;21.83;;
7080;SDS011;3582;51.506;11.948;2022-08-20T02:58:15;24.63;;;22.17;;
7080;SDS011;3582;51.506;11.948;2022-08-20T03:00:41;24.97;;;22.17;;
7080;SDS011;3582;51.506;11.948;2022-08-20T03:03:08;26.33;;;23.57;;
7080;SDS011;3582;51.506;11.948;2022-08-20T03:05:35;27.63;;;22.50;;
7080;SDS011;3582;51.506;11.948;2022-08-20T03:08:02;24.60;;;22.10;;
7080;SDS011;3582;51.506;11.948;2022-08-20T03:10:30;26.37;;;23.67;;
7080;SDS011;3582;51.506;11.948;2022-08-20T03:12:56;24.90;;;22.40;;
7080;SDS011;3582;51.506;11.948;2022-08-20T03:15:24;25.10;;;22.60;;
7080;SDS011;3582;51.506;11.948;2022-08-20T03:17:50;26.40;;;23.63;;
7080;SDS011;3582;51.506;11.948;2022-08-20T03:20:16;26.00;;;23.50;;
7080;SDS011;3582;51.506;11.948;2022-08-20T03:22:42;26.53;;;21.77;;
7080;SDS011;3582;51.506;11.948;2022-08-20T03:25:08;27.53;;;24.73;;
7080;SDS011;3582;51.506;11.948;2022-08-20T03:27:35;28.87;;;24.67;;
7080;SDS011;3582;51.506;11.948;2022-08-20T03:30:01;28.67;;;25.40;;
7080;SDS011;3582;51.506;11.948;2022-08-20T03:32:26;25.60;;;23.10;;
7080;SDS011;3582;51.506;11.948;2022-08-20T03:34:52;30.33;;;24.60;;
7080;SDS011;3582;51.506;11.948;2022-08-20T03:37:18;29.57;;;24.10;;
7080;SDS011;3582;51.506;11.948;2022-08-20T03:39:44;26.13;;;23.40;;
7080;SDS011;3582;51.506;11.948;2022-08-20T03:42:10;27.60;;;24.60;;
7080;SDS011;3582;51.506;11.948;2022-08-20T03:44:36;26.37;;;23.63;;
7080;SDS011;3582;51.506;11.948;2022-08-20T03:47:03;27.30;;;24.67;;
7080;SDS011;3582;51.506;11.948;2022-08-20T03:49:31;31.67;;;26.73;;
7080;SDS011;3582;51.506;11.948;2022-08-20T03:51:57;27.30;;;23.80;;
7080;SDS011;3582;51.506;11.948;2022-08-20T03:54:25;28.10;;;25.20;;
7080;SDS011;3582;51.506;11.948;2022-08-20T03:56:51;29.63;;;26.47;;
7080;SDS011;3582;51.506;11.948;2022-08-20T03:59:17;28.93;;;25.90;;
7080;SDS011;3582;51.506;11.948;2022-08-20T04:01:43;32.60;;;29.50;;
7080;SDS011;3582;51.506;11.948;2022-08-20T04:04:09;29.23;;;26.20;;
7080;SDS011;3582;51.506;11.948;2022-08-20T04:06:35;29.70;;;26.50;;
7080;SDS011;3582;51.506;11.948;2022-08-20T04:09:01;29.17;;;26.17;;
7080;SDS011;3582;51.506;11.948;2022-08-20T04:11:27;28.47;;;25.67;;
7080;SDS011;3582;51.506;11.948;2022-08-20T04:13:53;29.07;;;26.07;;
7080;SDS011;3582;51.506;11.948;2022-08-20T04:16:19;28.67;;;25.57;;
7080;SDS011;3582;51.506;11.948;2022-08-20T04:18:46;29.60;;;26.63;;
7080;SDS011;3582;51.506;11.948;2022-08-20T04:21:12;33.03;;;29.40;;
7080;SDS011;3582;51.506;11.948;2022-08-20T04:23:38;33.40;;;28.23;;
7080;SDS011;3582;51.506;11.948;2022-08-20T04:26:04;27.20;;;24.43;;
7080;SDS011;3582;51.506;11.948;2022-08-20T04:28:30;31.67;;;27.53;;
7080;SDS011;3582;51.506;11.948;2022-08-20T04:30:58;30.33;;;27.20;;
7080;SDS011;3582;51.506;11.948;2022-08-20T04:33:25;28.20;;;25.23;;
7080;SDS011;3582;51.506;11.948;2022-08-20T04:35:52;32.30;;;25.60;;
7080;SDS011;3582;51.506;11.948;2022-08-20T04:38:19;33.43;;;28.17;;
7080;SDS011;3582;51.506;11.948;2022-08-20T04:40:45;31.33;;;26.70;;
7080;SDS011;3582;51.506;11.948;2022-08-20T04:43:18;29.97;;;24.60;;
7080;SDS011;3582;51.506;11.948;2022-08-20T04:45:45;30.10;;;26.80;;
7080;SDS011;3582;51.506;11.948;2022-08-20T04:48:11;29.73;;;26.40;;
7080;SDS011;3582;51.506;11.948;2022-08-20T04:50:37;29.93;;;26.20;;
7080;SDS011;3582;51.506;11.948;2022-08-20T04:53:05;30.93;;;26.60;;
7080;SDS011;3582;51.506;11.948;2022-08-20T04:55:32;29.50;;;26.33;;
7080;SDS011;3582;51.506;11.948;2022-08-20T04:58:04;29.13;;;25.70;;
7080;SDS011;3582;51.506;11.948;2022-08-20T05:00:31;30.53;;;27.33;;
7080;SDS011;3582;51.506;11.948;2022-08-20T05:02:57;28.87;;;25.93;;
7080;SDS011;3582;51.506;11.948;2022-08-20T05:05:23;33.97;;;26.80;;
7080;SDS011;3582;51.506;11.948;2022-08-20T05:07:50;32.80;;;25.30;;
7080;SDS011;3582;51.506;11.948;2022-08-20T05:10:17;27.70;;;24.27;;
7080;SDS011;3582;51.506;11.948;2022-08-20T05:12:43;29.20;;;26.10;;
7080;SDS011;3582;51.506;11.948;2022-08-20T05:15:11;29.83;;;26.67;;
7080;SDS011;3582;51.506;11.948;2022-08-20T05:17:40;28.63;;;25.50;;
7080;SDS011;3582;51.506;11.948;2022-08-20T05:20:09;28.60;;;24.67;;
7080;SDS011;3582;51.506;11.948;2022-08-20T05:22:35;29.47;;;26.00;;
7080;SDS011;3582;51.506;11.948;2022-08-20T05:25:01;28.37;;;25.23;;
7080;SDS011;3582;51.506;11.948;2022-08-20T05:27:28;30.93;;;26.77;;
7080;SDS011;3582;51.506;11.948;2022-08-20T05:29:58;29.57;;;25.53;;
7080;SDS011;3582;51.506;11.948;2022-08-20T05:32:24;27.57;;;24.77;;
7080;SDS011;3582;51.506;11.948;2022-08-20T05:34:50;27.50;;;24.47;;
7080;SDS011;3582;51.506;11.948;2022-08-20T05:37:17;31.00;;;27.03;;
7080;SDS011;3582;51.506;11.948;2022-08-20T05:39:43;30.57;;;25.30;;
7080;SDS011;3582;51.506;11.948;2022-08-20T05:42:09;30.00;;;26.30;;
7080;SDS011;3582;51.506;11.948;2022-08-20T05:44:36;29.93;;;26.90;;
7080;SDS011;3582;51.506;11.948;2022-08-20T05:47:02;31.07;;;27.67;;
7080;SDS011;3582;51.506;11.948;2022-08-20T05:49:29;32.37;;;26.50;;
7080;SDS011;3582;51.506;11.948;2022-08-20T05:51:55;30.50;;;25.83;;
7080;SDS011;3582;51.506;11.948;2022-08-20T05:54:22;27.27;;;23.90;;
7080;SDS011;3582;51.506;11.948;2022-08-20T05:56:48;30.40;;;26.07;;
7080;SDS011;3582;51.506;11.948;2022-08-20T05:59:14;32.63;;;26.53;;
7080;SDS011;3582;51.506;11.948;2022-08-20T06:01:41;32.33;;;27.87;;
7080;SDS011;3582;51.506;11.948;2022-08-20T06:04:07;31.47;;;27.27;;
7080;SDS011;3582;51.506;11.948;2022-08-20T06:06:49;34.67;;;29.10;;
7080;SDS011;3582;51.506;11.948;2022-08-20T06:09:16;33.40;;;28.07;;
7080;SDS011;3582;51.506;11.948;2022-08-20T06:11:43;30.73;;;26.93;;
7080;SDS011;3582;51.506;11.948;2022-08-20T06:14:08;34.83;;;28.80;;
7080;SDS011;3582;51.506;11.948;2022-08-20T06:16:34;33.50;;;28.77;;
7080;SDS011;3582;51.506;11.948;2022-08-20T06:19:01;31.83;;;28.33;;
7080;SDS011;3582;51.506;11.948;2022-08-20T06:21:26;33.63;;;26.30;;
7080;SDS011;3582;51.506;11.948;2022-08-20T06:23:52;33.33;;;26.67;;
7080;SDS011;3582;51.506;11.948;2022-08-20T06:26:18;33.07;;;27.93;;
7080;SDS011;3582;51.506;11.948;2022-08-20T06:28:44;33.73;;;28.30;;
7080;SDS011;3582;51.506;11.948;2022-08-20T06:31:10;28.57;;;25.53;;
7080;SDS011;3582;51.506;11.948;2022-08-20T06:33:36;38.33;;;30.57;;
7080;SDS011;3582;51.506;11.948;2022-08-20T06:36:02;33.47;;;28.30;;
7080;SDS011;3582;51.506;11.948;2022-08-20T06:38:28;42.27;;;30.23;;
7080;SDS011;3582;51.506;11.948;2022-08-20T06:40:56;32.37;;;27.20;;
7080;SDS011;3582;51.506;11.948;2022-08-20T06:43:22;30.13;;;27.00;;
7080;SDS011;3582;51.506;11.948;2022-08-20T06:45:48;33.30;;;28.50;;
7080;SDS011;3582;51.506;11.948;2022-08-20T06:48:14;34.97;;;27.70;;
7080;SDS011;3582;51.506;11.948;2022-08-20T06:50:43;31.13;;;25.30;;
7080;SDS011;3582;51.506;11.948;2022-08-20T06:53:11;30.63;;;27.37;;
7080;SDS011;3582;51.506;11.948;2022-08-20T06:55:38;35.93;;;26.97;;
7080;SDS011;3582;51.506;11.948;2022-08-20T06:58:06;29.10;;;24.63;;
7080;SDS011;3582;51.506;11.948;2022-08-20T07:00:34;33.77;;;25.27;;
7080;SDS011;3582;51.506;11.948;2022-08-20T07:03:00;32.60;;;26.80;;
7080;SDS011;3582;51.506;11.948;2022-08-20T07:05:33;28.53;;;25.53;;
7080;SDS011;3582;51.506;11.948;2022-08-20T07:07:59;29.17;;;26.10;;
7080;SDS011;3582;51.506;11.948;2022-08-20T07:10:26;27.77;;;24.87;;
7080;SDS011;3582;51.506;11.948;2022-08-20T07:12:53;28.03;;;24.77;;
7080;SDS011;3582;51.506;11.948;2022-08-20T07:15:19;27.80;;;23.87;;
7080;SDS011;3582;51.506;11.948;2022-08-20T07:17:49;31.30;;;26.00;;
7080;SDS011;3582;51.506;11.948;2022-08-20T07:20:16;33.33;;;26.70;;
7080;SDS011;3582;51.506;11.948;2022-08-20T07:22:42;31.43;;;25.10;;
7080;SDS011;3582;51.506;11.948;2022-08-20T07:25:10;29.13;;;26.03;;
7080;SDS011;3582;51.506;11.948;2022-08-20T07:27:36;28.30;;;25.20;;
7080;SDS011;3582;51.506;11.948;2022-08-20T07:30:03;27.43;;;24.73;;
7080;SDS011;3582;51.506;11.948;2022-08-20T07:32:48;28.60;;;25.57;;
7080;SDS011;3582;51.506;11.948;2022-08-20T07:35:15;34.53;;;26.47;;
7080;SDS011;3582;51.506;11.948;2022-08-20T07:37:42;29.93;;;26.13;;
7080;SDS011;3582;51.506;11.948;2022-08-20T07:40:10;26.97;;;24.17;;
7080;SDS011;3582;51.506;11.948;2022-08-20T07:42:37;26.00;;;22.80;;
7080;SDS011;3582;51.506;11.948;2022-08-20T07:45:03;30.47;;;27.07;;
7080;SDS011;3582;51.506;11.948;2022-08-20T07:47:30;27.83;;;24.80;;
7080;SDS011;3582;51.506;11.948;2022-08-20T07:49:56;28.60;;;25.60;;
7080;SDS011;3582;51.506;11.948;2022-08-20T07:52:22;29.30;;;24.10;;
7080;SDS011;3582;51.506;11.948;2022-08-20T07:54:48;29.80;;;26.67;;
7080;SDS011;3582;51.506;11.948;2022-08-20T07:57:14;24.43;;;21.97;;
7080;SDS011;3582;51.506;11.948;2022-08-20T07:59:41;26.70;;;24.07;;
7080;SDS011;3582;51.506;11.948;2022-08-20T08:02:10;26.20;;;23.40;;
7080;SDS011;3582;51.506;11.948;2022-08-20T08:04:36;28.43;;;25.00;;
7080;SDS011;3582;51.506;11.948;2022-08-20T08:07:02;26.60;;;24.07;;
7080;SDS011;3582;51.506;11.948;2022-08-20T08:09:28;27.60;;;24.70;;
7080;SDS011;3582;51.506;11.948;2022-08-20T08:11:55;24.80;;;22.47;;
7080;SDS011;3582;51.506;11.948;2022-08-20T08:14:23;24.37;;;21.97;;
7080;SDS011;3582;51.506;11.948;2022-08-20T08:16:52;24.30;;;21.77;;
7080;SDS011;3582;51.506;11.948;2022-08-20T08:19:18;25.83;;;21.87;;
7080;SDS011;3582;51.506;11.948;2022-08-20T08:21:44;25.03;;;22.60;;
7080;SDS011;3582;51.506;11.948;2022-08-20T08:24:11;24.97;;;22.47;;
7080;SDS011;3582;51.506;11.948;2022-08-20T08:26:37;24.13;;;21.83;;
7080;SDS011;3582;51.506;11.948;2022-08-20T08:29:03;26.20;;;23.50;;
7080;SDS011;3582;51.506;11.948;2022-08-20T08:31:31;26.50;;;24.20;;
7080;SDS011;3582;51.506;11.948;2022-08-20T08:33:57;24.93;;;22.73;;
7080;SDS011;3582;51.506;11.948;2022-08-20T08:36:23;25.93;;;23.30;;
7080;SDS011;3582;51.506;11.948;2022-08-20T08:38:50;25.50;;;23.10;;
7080;SDS011;3582;51.506;11.948;2022-08-20T08:44:18;24.77;;;22.07;;
7080;SDS011;3582;51.506;11.948;2022-08-20T08:46:48;26.23;;;23.40;;
7080;SDS011;3582;51.506;11.948;2022-08-20T08:49:17;26.80;;;24.03;;
7080;SDS011;3582;51.506;11.948;2022-08-20T08:51:46;25.93;;;22.60;;
7080;SDS011;3582;51.506;11.948;2022-08-20T08:54:14;25.40;;;22.90;;
7080;SDS011;3582;51.506;11.948;2022-08-20T08:56:41;25.70;;;22.30;;
7080;SDS011;3582;51.506;11.948;2022-08-20T08:59:07;24.27;;;21.67;;
7080;SDS011;3582;51.506;11.948;2022-08-20T09:01:38;24.73;;;22.23;;
7080;SDS011;3582;51.506;11.948;2022-08-20T09:04:06;31.97;;;23.10;;
7080;SDS011;3582;51.506;11.948;2022-08-20T09:06:33;25.47;;;22.83;;
7080;SDS011;3582;51.506;11.948;2022-08-20T09:09:00;32.10;;;24.90;;
7080;SDS011;3582;51.506;11.948;2022-08-20T09:11:28;24.70;;;22.23;;
7080;SDS011;3582;51.506;11.948;2022-08-20T09:13:54;27.07;;;22.97;;
7080;SDS011;3582;51.506;11.948;2022-08-20T09:16:21;24.73;;;22.43;;
7080;SDS011;3582;51.506;11.948;2022-08-20T09:18:47;26.57;;;23.87;;
7080;SDS011;3582;51.506;11.948;2022-08-20T09:21:14;25.07;;;22.67;;
7080;SDS011;3582;51.506;11.948;2022-08-20T09:23:40;24.40;;;22.10;;
7080;SDS011;3582;51.506;11.948;2022-08-20T09:26:06;24.90;;;22.50;;
7080;SDS011;3582;51.506;11.948;2022-08-20T09:28:32;23.90;;;21.60;;
7080;SDS011;3582;51.506;11.948;2022-08-20T09:30:58;26.43;;;23.83;;
7080;SDS011;3582;51.506;11.948;2022-08-20T09:33:24;26.83;;;23.97;;
7080;SDS011;3582;51.506;11.948;2022-08-20T09:35:50;26.10;;;23.60;;
7080;SDS011;3582;51.506;11.948;2022-08-20T09:38:16;26.53;;;23.83;;
7080;SDS011;3582;51.506;11.948;2022-08-20T09:40:42;25.00;;;22.43;;
7080;SDS011;3582;51.506;11.948;2022-08-20T09:43:08;24.80;;;22.50;;
7080;SDS011;3582;51.506;11.948;2022-08-20T09:45:35;25.70;;;23.30;;
7080;SDS011;3582;51.506;11.948;2022-08-20T09:48:01;26.10;;;23.50;;
7080;SDS011;3582;51.506;11.948;2022-08-20T09:50:28;29.50;;;26.47;;
7080;SDS011;3582;51.506;11.948;2022-08-20T09:52:55;26.10;;;23.40;;
7080;SDS011;3582;51.506;11.948;2022-08-20T09:55:27;24.10;;;21.70;;
7080;SDS011;3582;51.506;11.948;2022-08-20T09:57:54;25.17;;;22.77;;
7080;SDS011;3582;51.506;11.948;2022-08-20T10:00:21;24.33;;;21.90;;
7080;SDS011;3582;51.506;11.948;2022-08-20T10:02:47;27.67;;;24.80;;
7080;SDS011;3582;51.506;11.948;2022-08-20T10:05:13;24.83;;;22.63;;
7080;SDS011;3582;51.506;11.948;2022-08-20T10:07:39;25.90;;;23.40;;
7080;SDS011;3582;51.506;11.948;2022-08-20T10:10:06;25.37;;;22.97;;
7080;SDS011;3582;51.506;11.948;2022-08-20T10:12:32;26.50;;;23.70;;
7080;SDS011;3582;51.506;11.948;2022-08-20T10:14:58;27.00;;;24.10;;
7080;SDS011;3582;51.506;11.948;2022-08-20T10:17:24;26.27;;;23.77;;
7080;SDS011;3582;51.506;11.948;2022-08-20T10:19:50;32.73;;;24.40;;
7080;SDS011;3582;51.506;11.948;2022-08-20T10:22:16;26.93;;;24.47;;
7080;SDS011;3582;51.506;11.948;2022-08-20T10:24:42;23.33;;;21.03;;
7080;SDS011;3582;51.506;11.948;2022-08-20T10:27:08;24.77;;;22.47;;
7080;SDS011;3582;51.506;11.948;2022-08-20T10:29:34;23.50;;;21.30;;
7080;SDS011;3582;51.506;11.948;2022-08-20T10:32:07;22.63;;;20.30;;
7080;SDS011;3582;51.506;11.948;2022-08-20T10:34:33;24.30;;;21.90;;
7080;SDS011;3582;51.506;11.948;2022-08-20T10:36:59;24.57;;;22.37;;
7080;SDS011;3582;51.506;11.948;2022-08-20T10:39:25;24.40;;;21.90;;
7080;SDS011;3582;51.506;11.948;2022-08-20T10:41:51;22.60;;;20.47;;
7080;SDS011;3582;51.506;11.948;2022-08-20T10:44:17;24.70;;;22.20;;
7080;SDS011;3582;51.506;11.948;2022-08-20T10:46:43;23.67;;;21.47;;
7080;SDS011;3582;51.506;11.948;2022-08-20T10:49:09;23.03;;;20.83;;
7080;SDS011;3582;51.506;11.948;2022-08-20T10:51:36;23.10;;;21.00;;
7080;SDS011;3582;51.506;11.948;2022-08-20T10:54:02;23.43;;;21.27;;
7080;SDS011;3582;51.506;11.948;2022-08-20T10:56:28;21.30;;;19.40;;
7080;SDS011;3582;51.506;11.948;2022-08-20T10:58:54;22.23;;;20.17;;
7080;SDS011;3582;51.506;11.948;2022-08-20T11:01:20;21.50;;;19.40;;
7080;SDS011;3582;51.506;11.948;2022-08-20T11:03:46;22.47;;;20.10;;
7080;SDS011;3582;51.506;11.948;2022-08-20T11:06:12;23.63;;;21.10;;
7080;SDS011;3582;51.506;11.948;2022-08-20T11:08:38;23.23;;;20.90;;
7080;SDS011;3582;51.506;11.948;2022-08-20T11:11:04;21.47;;;19.53;;
7080;SDS011;3582;51.506;11.948;2022-08-20T11:13:31;21.47;;;19.57;;
7080;SDS011;3582;51.506;11.948;2022-08-20T11:15:57;16.90;;;15.30;;
7080;SDS011;3582;51.506;11.948;2022-08-20T11:18:23;17.63;;;16.13;;
7080;SDS011;3582;51.506;11.948;2022-08-20T11:20:49;19.33;;;17.30;;
7080;SDS011;3582;51.506;11.948;2022-08-20T11:23:15;21.10;;;18.97;;
7080;SDS011;3582;51.506;11.948;2022-08-20T11:25:41;17.10;;;15.53;;
7080;SDS011;3582;51.506;11.948;2022-08-20T11:28:06;17.13;;;15.47;;
7080;SDS011;3582;51.506;11.948;2022-08-20T11:30:34;20.87;;;18.20;;
7080;SDS011;3582;51.506;11.948;2022-08-20T11:33:00;20.30;;;18.50;;
7080;SDS011;3582;51.506;11.948;2022-08-20T11:35:27;20.27;;;18.47;;
7080;SDS011;3582;51.506;11.948;2022-08-20T11:37:54;20.40;;;18.60;;
7080;SDS011;3582;51.506;11.948;2022-08-20T11:40:21;19.47;;;17.70;;
7080;SDS011;3582;51.506;11.948;2022-08-20T11:42:47;20.40;;;18.17;;
7080;SDS011;3582;51.506;11.948;2022-08-20T11:45:13;23.50;;;21.30;;
7080;SDS011;3582;51.506;11.948;2022-08-20T11:47:39;22.60;;;20.50;;
7080;SDS011;3582;51.506;11.948;2022-08-20T11:50:10;24.63;;;21.93;;
7080;SDS011;3582;51.506;11.948;2022-08-20T11:52:36;21.70;;;19.63;;
7080;SDS011;3582;51.506;11.948;2022-08-20T11:55:03;21.47;;;19.40;;
7080;SDS011;3582;51.506;11.948;2022-08-20T11:57:31;22.70;;;20.40;;
7080;SDS011;3582;51.506;11.948;2022-08-20T11:59:59;25.07;;;22.83;;
7080;SDS011;3582;51.506;11.948;2022-08-20T12:02:25;26.37;;;23.83;;
7080;SDS011;3582;51.506;11.948;2022-08-20T12:04:51;24.43;;;21.93;;
7080;SDS011;3582;51.506;11.948;2022-08-20T12:07:19;25.33;;;22.93;;
7080;SDS011;3582;51.506;11.948;2022-08-20T12:09:45;24.17;;;21.87;;
7080;SDS011;3582;51.506;11.948;2022-08-20T12:12:11;23.53;;;21.40;;
7080;SDS011;3582;51.506;11.948;2022-08-20T12:14:37;27.87;;;24.90;;
7080;SDS011;3582;51.506;11.948;2022-08-20T12:17:10;26.07;;;23.43;;
7080;SDS011;3582;51.506;11.948;2022-08-20T12:19:37;24.83;;;22.33;;
7080;SDS011;3582;51.506;11.948;2022-08-20T12:22:03;25.10;;;22.60;;
7080;SDS011;3582;51.506;11.948;2022-08-20T12:24:29;25.57;;;23.30;;
7080;SDS011;3582;51.506;11.948;2022-08-20T12:26:55;26.83;;;24.23;;
7080;SDS011;3582;51.506;11.948;2022-08-20T12:29:32;27.50;;;25.00;;
7080;SDS011;3582;51.506;11.948;2022-08-20T12:31:58;27.60;;;25.10;;
7080;SDS011;3582;51.506;11.948;2022-08-20T12:34:24;25.87;;;23.57;;
7080;SDS011;3582;51.506;11.948;2022-08-20T12:36:50;28.83;;;26.13;;
7080;SDS011;3582;51.506;11.948;2022-08-20T12:39:24;27.17;;;24.67;;
7080;SDS011;3582;51.506;11.948;2022-08-20T12:41:50;28.67;;;26.20;;
7080;SDS011;3582;51.506;11.948;2022-08-20T12:44:16;26.27;;;23.67;;
7080;SDS011;3582;51.506;11.948;2022-08-20T12:46:42;29.57;;;26.70;;
7080;SDS011;3582;51.506;11.948;2022-08-20T12:49:08;26.87;;;24.43;;
7080;SDS011;3582;51.506;11.948;2022-08-20T12:51:34;27.07;;;24.57;;
7080;SDS011;3582;51.506;11.948;2022-08-20T12:54:00;28.67;;;25.87;;
7080;SDS011;3582;51.506;11.948;2022-08-20T12:56:26;27.57;;;25.27;;
7080;SDS011;3582;51.506;11.948;2022-08-20T12:58:52;27.07;;;24.67;;
7080;SDS011;3582;51.506;11.948;2022-08-20T13:01:18;25.57;;;23.37;;
7080;SDS011;3582;51.506;11.948;2022-08-20T13:03:44;25.23;;;23.13;;
7080;SDS011;3582;51.506;11.948;2022-08-20T13:06:10;25.03;;;22.40;;
7080;SDS011;3582;51.506;11.948;2022-08-20T13:08:36;25.43;;;23.00;;
7080;SDS011;3582;51.506;11.948;2022-08-20T13:11:02;25.37;;;23.10;;
7080;SDS011;3582;51.506;11.948;2022-08-20T13:13:28;23.57;;;21.40;;
7080;SDS011;3582;51.506;11.948;2022-08-20T13:15:53;22.17;;;20.13;;
7080;SDS011;3582;51.506;11.948;2022-08-20T13:18:19;24.27;;;21.87;;
7080;SDS011;3582;51.506;11.948;2022-08-20T13:20:45;23.30;;;21.17;;
7080;SDS011;3582;51.506;11.948;2022-08-20T13:23:12;24.37;;;22.37;;
7080;SDS011;3582;51.506;11.948;2022-08-20T13:25:38;25.30;;;23.17;;
7080;SDS011;3582;51.506;11.948;2022-08-20T13:28:04;24.73;;;22.37;;
7080;SDS011;3582;51.506;11.948;2022-08-20T13:30:30;26.97;;;24.50;;
7080;SDS011;3582;51.506;11.948;2022-08-20T13:32:56;22.03;;;19.57;;
7080;SDS011;3582;51.506;11.948;2022-08-20T13:35:22;22.07;;;19.93;;
7080;SDS011;3582;51.506;11.948;2022-08-20T13:37:48;23.93;;;21.93;;
7080;SDS011;3582;51.506;11.948;2022-08-20T13:40:14;25.13;;;22.77;;
7080;SDS011;3582;51.506;11.948;2022-08-20T13:42:41;26.33;;;24.00;;
7080;SDS011;3582;51.506;11.948;2022-08-20T13:45:07;24.13;;;21.93;;
7080;SDS011;3582;51.506;11.948;2022-08-20T13:47:34;23.50;;;21.40;;
7080;SDS011;3582;51.506;11.948;2022-08-20T13:50:05;23.30;;;20.97;;
7080;SDS011;3582;51.506;11.948;2022-08-20T13:52:32;27.23;;;24.40;;
7080;SDS011;3582;51.506;11.948;2022-08-20T13:54:58;23.87;;;21.47;;
7080;SDS011;3582;51.506;11.948;2022-08-20T13:57:24;23.37;;;21.00;;
7080;SDS011;3582;51.506;11.948;2022-08-20T13:59:52;25.07;;;22.87;;
7080;SDS011;3582;51.506;11.948;2022-08-20T14:02:19;22.93;;;20.97;;
7080;SDS011;3582;51.506;11.948;2022-08-20T14:04:46;25.30;;;22.63;;
7080;SDS011;3582;51.506;11.948;2022-08-20T14:07:16;21.87;;;20.07;;
7080;SDS011;3582;51.506;11.948;2022-08-20T14:09:44;25.40;;;22.90;;
7080;SDS011;3582;51.506;11.948;2022-08-20T14:12:11;25.30;;;22.73;;
7080;SDS011;3582;51.506;11.948;2022-08-20T14:14:37;23.40;;;21.13;;
7080;SDS011;3582;51.506;11.948;2022-08-20T14:17:14;26.13;;;23.37;;
7080;SDS011;3582;51.506;11.948;2022-08-20T14:19:40;22.30;;;20.33;;
7080;SDS011;3582;51.506;11.948;2022-08-20T14:22:06;22.23;;;20.07;;
7080;SDS011;3582;51.506;11.948;2022-08-20T14:24:32;23.70;;;21.50;;
7080;SDS011;3582;51.506;11.948;2022-08-20T14:27:01;26.70;;;24.07;;
7080;SDS011;3582;51.506;11.948;2022-08-20T14:29:27;26.23;;;23.73;;
7080;SDS011;3582;51.506;11.948;2022-08-20T14:31:52;25.10;;;22.60;;
7080;SDS011;3582;51.506;11.948;2022-08-20T14:34:18;26.73;;;24.07;;
7080;SDS011;3582;51.506;11.948;2022-08-20T14:36:44;25.63;;;23.13;;